Time;durP1;ratioP1;P1;durP2;ratioP2;P2;SDS_P1;SDS_P2;PMS_P1;PMS_P2;Temp;Humidity;BMP_temperature;BMP_pressure;BME280_temperature;BME280_humidity;BME280_pressure;Samples;Min_cycle;Max_cycle;Signal;HPM_P1;HPM_P2
2022/03/13 00:00:37;;;;;;;49.80;24.58;;;2.10;99.80;;;;;;6172899;23;20041;-86
2022/03/13 00:03:26;;;;;;;46.22;25.17;;;2.00;99.00;;;;;;6099799;23;20026;-87
2022/03/13 00:06:32;;;;;;;49.60;27.05;;;2.00;99.80;;;;;;6093625;23;20026;-86
2022/03/13 00:09:22;;;;;;;45.13;25.23;;;1.90;99.90;;;;;;6178070;23;20038;-86
2022/03/13 00:12:14;;;;;;;47.92;25.10;;;1.90;99.90;;;;;;6185074;23;20030;-84
2022/03/13 00:15:22;;;;;;;59.08;26.52;;;1.80;99.90;;;;;;6100305;23;20022;-85
2022/03/13 00:18:15;;;;;;;47.63;24.92;;;1.80;99.90;;;;;;6098679;23;20041;-86
2022/03/13 00:21:07;;;;;;;44.10;24.48;;;1.80;99.90;;;;;;6101537;23;20031;-85
2022/03/13 00:23:57;;;;;;;43.83;23.58;;;1.80;99.90;;;;;;6105714;23;20027;-85
2022/03/13 00:26:44;;;;;;;47.13;24.23;;;1.80;99.90;;;;;;6107626;22;20079;-85
2022/03/13 00:29:31;;;;;;;43.58;24.40;;;1.80;99.90;;;;;;6104616;23;20034;-85
2022/03/13 00:32:19;;;;;;;44.17;22.42;;;1.80;99.90;;;;;;6110823;23;20014;-84
2022/03/13 00:35:10;;;;;;;44.28;23.13;;;1.80;99.90;;;;;;6114841;23;20022;-86
2022/03/13 00:38:01;;;;;;;44.25;24.33;;;1.80;99.70;;;;;;6104758;23;20023;-85
2022/03/13 00:40:51;;;;;;;45.20;23.95;;;1.80;99.90;;;;;;6109050;23;20054;-87
2022/03/13 00:43:45;;;;;;;50.13;24.90;;;1.80;99.90;;;;;;6189076;23;20054;-85
2022/03/13 00:46:41;;;;;;;48.47;25.48;;;1.80;99.90;;;;;;6101200;23;20037;-85
2022/03/13 00:49:34;;;;;;;46.67;24.83;;;1.80;99.90;;;;;;6178446;23;20111;-86
2022/03/13 00:52:22;;;;;;;49.95;26.00;;;1.80;99.90;;;;;;6092126;23;20390;-85
2022/03/13 00:55:09;;;;;;;46.53;24.63;;;1.80;99.90;;;;;;6093474;23;20037;-85
2022/03/13 00:57:58;;;;;;;54.50;26.20;;;1.70;99.90;;;;;;6092840;23;20444;-85
2022/03/13 01:00:46;;;;;;;48.00;25.05;;;1.70;99.90;;;;;;6091754;23;20034;-86
2022/03/13 01:03:39;;;;;;;50.45;25.20;;;1.60;99.90;;;;;;6094156;23;20030;-86
2022/03/13 01:06:29;;;;;;;50.30;26.55;;;1.60;99.90;;;;;;6175017;23;20429;-86
2022/03/13 01:09:17;;;;;;;47.25;26.17;;;1.60;99.90;;;;;;6093144;23;20030;-86
2022/03/13 01:12:05;;;;;;;48.63;25.25;;;1.50;99.90;;;;;;6178072;23;20094;-85
2022/03/13 01:14:52;;;;;;;48.25;25.40;;;1.50;99.90;;;;;;6093420;23;20019;-84
2022/03/13 01:17:41;;;;;;;51.65;25.40;;;1.40;99.90;;;;;;6094108;23;20026;-88
2022/03/13 01:20:28;;;;;;;46.33;24.48;;;1.40;99.90;;;;;;6090987;23;20080;-84
2022/03/13 01:23:17;;;;;;;48.20;24.67;;;1.40;99.90;;;;;;6090076;23;20026;-86
2022/03/13 01:26:23;;;;;;;47.65;24.88;;;1.40;99.90;;;;;;6092565;23;20031;-86
2022/03/13 01:29:14;;;;;;;49.33;24.92;;;1.40;99.90;;;;;;6175443;23;20030;-86
2022/03/13 01:32:03;;;;;;;49.53;24.15;;;1.30;99.90;;;;;;6091061;23;20030;-85
2022/03/13 01:34:54;;;;;;;44.40;22.73;;;1.30;99.90;;;;;;6093582;23;20133;-86
2022/03/13 01:37:44;;;;;;;45.55;24.92;;;1.20;99.90;;;;;;6093668;23;20042;-86
2022/03/13 01:40:33;;;;;;;48.10;25.70;;;1.20;99.90;;;;;;6090670;23;20370;-86
2022/03/13 01:43:20;;;;;;;45.33;24.55;;;1.10;99.90;;;;;;6091918;23;20092;-86
2022/03/13 01:46:11;;;;;;;44.42;23.48;;;1.00;99.90;;;;;;6092946;23;20030;-87
2022/03/13 01:49:03;;;;;;;46.17;22.05;;;1.00;99.90;;;;;;6176315;23;20077;-85
2022/03/13 01:51:52;;;;;;;40.10;22.02;;;1.00;99.90;;;;;;6174940;23;20033;-86
2022/03/13 01:54:41;;;;;;;47.38;23.30;;;1.00;99.90;;;;;;6091252;23;20090;-87
2022/03/13 01:57:32;;;;;;;46.55;25.15;;;1.10;99.90;;;;;;6093475;23;20046;-85
2022/03/13 02:00:22;;;;;;;50.47;27.65;;;1.10;99.90;;;;;;6186164;23;20026;-87
2022/03/13 02:03:10;;;;;;;49.90;25.55;;;1.10;99.90;;;;;;6174901;23;20041;-86
2022/03/13 02:05:59;;;;;;;43.28;19.85;;;1.00;99.90;;;;;;6092295;23;20412;-85
2022/03/13 02:08:50;;;;;;;43.22;22.25;;;1.20;99.90;;;;;;6174723;23;20325;-85
2022/03/13 02:11:41;;;;;;;38.90;18.92;;;1.30;99.90;;;;;;6093735;23;20084;-85
2022/03/13 02:14:31;;;;;;;35.40;18.65;;;1.70;99.90;;;;;;6091109;23;20022;-86
2022/03/13 02:17:33;;;;;;;39.95;18.00;;;2.00;98.30;;;;;;6089333;23;20026;-87
2022/03/13 02:20:26;;;;;;;34.45;17.55;;;2.10;96.40;;;;;;6088410;23;20052;-85
2022/03/13 02:23:24;;;;;;;33.92;17.27;;;2.20;96.10;;;;;;6096737;22;20030;-86
2022/03/13 02:26:14;;;;;;;32.35;16.55;;;2.40;93.70;;;;;;6178357;23;20436;-85
2022/03/13 02:29:03;;;;;;;34.60;17.88;;;2.40;93.40;;;;;;6093295;23;20345;-86
2022/03/13 02:31:53;;;;;;;36.20;18.63;;;2.30;93.60;;;;;;6093687;23;20180;-86
2022/03/13 02:34:43;;;;;;;34.83;18.27;;;2.30;94.10;;;;;;6092445;23;20077;-87
2022/03/13 02:37:35;;;;;;;34.75;17.95;;;2.30;94.20;;;;;;6095797;23;20073;-86
2022/03/13 02:40:24;;;;;;;;;;;2.30;94.50;;;;;;6094666;23;20026;-86
2022/03/13 02:43:13;;;;;;;38.90;19.58;;;2.30;95.60;;;;;;6092991;23;20042;-86
2022/03/13 02:46:03;;;;;;;38.53;20.02;;;2.40;96.70;;;;;;6178984;23;20026;-87
2022/03/13 02:48:51;;;;;;;38.97;20.35;;;2.40;97.40;;;;;;6178820;23;20321;-86
2022/03/13 02:51:46;;;;;;;41.95;20.58;;;2.30;98.10;;;;;;6091996;23;20032;-86
2022/03/13 02:54:34;;;;;;;42.53;21.83;;;2.30;99.00;;;;;;6096022;23;20022;-86
2022/03/13 02:57:27;;;;;;;40.00;21.08;;;2.20;99.70;;;;;;6174231;23;20042;-86
2022/03/13 03:00:15;;;;;;;42.28;21.27;;;2.20;99.90;;;;;;6177902;23;20100;-85
2022/03/13 03:03:08;;;;;;;43.15;21.05;;;2.20;99.90;;;;;;6180270;23;20080;-86
2022/03/13 03:05:57;;;;;;;48.75;21.58;;;2.20;99.90;;;;;;6091762;23;20455;-87
2022/03/13 03:08:45;;;;;;;38.72;20.65;;;2.20;99.90;;;;;;6094749;23;20069;-87
2022/03/13 03:11:38;;;;;;;44.22;22.65;;;2.20;99.90;;;;;;6095439;23;20049;-87
2022/03/13 03:14:32;;;;;;;37.20;18.23;;;2.20;99.90;;;;;;6093622;23;20033;-87
2022/03/13 03:17:28;;;;;;;46.38;23.23;;;2.10;99.90;;;;;;6095351;23;20080;-87
2022/03/13 03:20:17;;;;;;;49.85;25.20;;;2.10;99.90;;;;;;6094008;23;20092;-85
2022/03/13 03:23:05;;;;;;;57.25;27.38;;;2.10;99.90;;;;;;6096007;23;20129;-85
2022/03/13 03:25:55;;;;;;;49.63;25.30;;;2.10;99.90;;;;;;6179333;23;20033;-87
2022/03/13 03:28:43;;;;;;;46.88;24.92;;;1.90;99.90;;;;;;6179085;23;20108;-82
2022/03/13 03:31:30;;;;;;;45.95;23.50;;;1.80;99.90;;;;;;6093107;23;20318;-86
2022/03/13 03:34:20;;;;;;;45.35;24.05;;;1.70;99.90;;;;;;6177990;23;20034;-86
2022/03/13 03:37:10;;;;;;;45.63;23.70;;;1.60;99.90;;;;;;6094326;23;20054;-86
2022/03/13 03:39:59;;;;;;;53.05;24.95;;;1.60;99.90;;;;;;6178713;23;20035;-86
2022/03/13 03:42:58;;;;;;;45.45;23.33;;;1.50;99.90;;;;;;6095216;23;20049;-85
2022/03/13 03:45:45;;;;;;;44.13;23.50;;;1.50;99.90;;;;;;6095039;23;20026;-87
2022/03/13 03:48:33;;;;;;;42.33;23.55;;;1.40;99.90;;;;;;6092088;23;20026;-86
2022/03/13 03:51:22;;;;;;;38.90;24.38;;;1.40;99.90;;;;;;6093587;23;20084;-86
2022/03/13 03:54:10;;;;;;;47.28;25.92;;;1.20;99.90;;;;;;6095492;23;20321;-83
2022/03/13 03:57:00;;;;;;;40.70;24.13;;;1.20;99.90;;;;;;6094637;23;20029;-86
2022/03/13 03:59:48;;;;;;;42.95;24.35;;;1.10;99.90;;;;;;6095913;23;20096;-84
2022/03/13 04:02:41;;;;;;;43.50;24.77;;;1.10;99.90;;;;;;6179792;23;20085;-86
2022/03/13 04:05:32;;;;;;;44.38;25.13;;;1.00;99.90;;;;;;6093986;23;20082;-85
2022/03/13 04:08:20;;;;;;;42.90;23.92;;;0.80;99.90;;;;;;6096256;23;20034;-85
2022/03/13 04:11:08;;;;;;;52.25;25.63;;;0.80;99.90;;;;;;6093983;23;20026;-86
2022/03/13 04:13:55;;;;;;;43.90;24.48;;;0.60;99.90;;;;;;6096691;23;20054;-86
2022/03/13 04:16:42;;;;;;;48.47;25.95;;;0.50;99.90;;;;;;6179073;23;20172;-84
2022/03/13 04:19:32;;;;;;;56.22;26.70;;;0.40;99.90;;;;;;6095682;23;20055;-87
2022/03/13 04:22:19;;;;;;;45.80;24.80;;;0.40;99.90;;;;;;6094024;23;20398;-86
2022/03/13 04:25:07;;;;;;;51.80;26.63;;;0.30;99.90;;;;;;6097864;23;20034;-85
2022/03/13 04:27:59;;;;;;;50.92;26.73;;;0.20;99.90;;;;;;6097739;23;20082;-85
2022/03/13 04:30:49;;;;;;;51.17;26.20;;;0.10;99.90;;;;;;6096935;23;20030;-87
2022/03/13 04:33:36;;;;;;;45.72;24.90;;;0.10;99.90;;;;;;6091315;23;20080;-85
2022/03/13 04:36:23;;;;;;;48.33;26.02;;;0.00;99.90;;;;;;6092137;23;20026;-85
2022/03/13 04:39:10;;;;;;;43.10;24.75;;;0.00;99.90;;;;;;6175745;23;20331;-84
2022/03/13 04:41:58;;;;;;;46.47;26.73;;;-0.10;99.90;;;;;;6096141;23;20092;-87
2022/03/13 04:44:46;;;;;;;49.42;27.33;;;-0.10;99.90;;;;;;6180603;23;20031;-86
2022/03/13 04:47:36;;;;;;;50.20;26.00;;;-0.10;99.90;;;;;;6097049;23;20031;-85
2022/03/13 04:50:23;;;;;;;51.10;27.30;;;-0.10;99.90;;;;;;6096764;23;20417;-84
2022/03/13 04:53:11;;;;;;;48.72;27.45;;;-0.10;99.90;;;;;;6099406;23;20029;-86
2022/03/13 04:55:58;;;;;;;56.08;28.75;;;0.00;99.90;;;;;;6179383;23;20038;-86
2022/03/13 04:58:46;;;;;;;52.53;28.08;;;0.00;99.90;;;;;;6098031;23;20073;-86
2022/03/13 05:01:36;;;;;;;51.42;27.55;;;0.10;99.90;;;;;;6100175;23;20037;-86
2022/03/13 05:04:24;;;;;;;54.38;28.30;;;0.20;99.90;;;;;;6181687;23;20033;-86
2022/03/13 05:07:12;;;;;;;59.45;28.10;;;0.20;99.90;;;;;;6099895;23;20413;-87
2022/03/13 05:10:10;;;;;;;56.88;27.92;;;0.20;99.90;;;;;;6101544;23;20109;-85
2022/03/13 05:12:57;;;;;;;49.13;27.10;;;0.50;99.90;;;;;;6100745;23;20064;-84
2022/03/13 05:15:47;;;;;;;48.28;27.55;;;0.80;99.90;;;;;;6099186;23;20038;-85
2022/03/13 05:18:37;;;;;;;51.33;27.10;;;1.10;99.90;;;;;;6100247;23;20023;-86
2022/03/13 05:21:26;;;;;;;43.50;25.25;;;1.20;99.90;;;;;;6099742;23;20038;-86
2022/03/13 05:24:14;;;;;;;49.13;26.45;;;1.20;99.90;;;;;;6102837;23;20031;-85
2022/03/13 05:27:01;;;;;;;48.47;26.17;;;1.20;99.90;;;;;;6102648;23;20030;-85
2022/03/13 05:29:48;;;;;;;52.40;27.48;;;1.10;99.90;;;;;;6104467;23;20030;-83
2022/03/13 05:32:39;;;;;;;48.72;26.42;;;1.00;99.90;;;;;;6105040;23;20109;-85
2022/03/13 05:35:27;;;;;;;51.15;27.70;;;0.90;99.90;;;;;;6107104;23;20030;-86
2022/03/13 05:38:21;;;;;;;47.50;27.70;;;0.70;99.90;;;;;;6109747;23;20034;-84
2022/03/13 05:41:09;;;;;;;46.78;26.67;;;0.70;99.90;;;;;;6193679;23;20342;-85
2022/03/13 05:43:56;;;;;;;51.40;26.85;;;0.50;99.90;;;;;;6197094;23;20041;-83
2022/03/13 05:46:48;;;;;;;51.85;27.33;;;0.50;99.90;;;;;;6113030;23;20088;-85
2022/03/13 05:49:40;;;;;;;49.72;27.48;;;0.40;99.90;;;;;;6104920;23;20038;-84
2022/03/13 05:52:27;;;;;;;50.67;28.02;;;0.30;99.90;;;;;;6106792;23;20125;-85
2022/03/13 05:55:17;;;;;;;52.78;28.08;;;0.30;99.90;;;;;;6102623;23;20026;-85
2022/03/13 05:58:10;;;;;;;50.85;28.90;;;0.30;99.90;;;;;;6099080;23;20045;-85
2022/03/13 06:01:04;;;;;;;53.60;30.15;;;0.20;99.90;;;;;;6094511;23;20041;-85
2022/03/13 06:03:53;;;;;;;58.47;29.23;;;0.20;99.90;;;;;;6092965;23;20037;-86
2022/03/13 06:06:43;;;;;;;58.55;28.10;;;0.20;99.90;;;;;;6091769;23;20023;-84
2022/03/13 06:09:42;;;;;;;55.65;27.17;;;0.20;99.90;;;;;;6091125;23;20054;-84
2022/03/13 06:12:30;;;;;;;45.92;26.70;;;0.20;99.90;;;;;;6088869;23;20121;-84
2022/03/13 06:15:27;;;;;;;47.80;26.60;;;0.20;99.90;;;;;;6087595;23;20026;-86
2022/03/13 06:18:15;;;;;;;47.83;26.95;;;0.30;99.90;;;;;;6087762;23;20023;-86
2022/03/13 06:21:05;;;;;;;49.35;26.80;;;0.40;99.90;;;;;;6092940;23;20137;-85
2022/03/13 06:23:52;;;;;;;53.58;27.95;;;0.50;99.90;;;;;;6092090;23;20488;-87
2022/03/13 06:26:39;;;;;;;56.53;28.38;;;0.60;99.90;;;;;;6177604;23;20427;-85
2022/03/13 06:29:26;;;;;;;49.97;26.77;;;0.70;99.90;;;;;;6091487;23;20027;-86
2022/03/13 06:32:15;;;;;;;44.60;25.65;;;0.80;99.90;;;;;;6093827;23;20034;-85
2022/03/13 06:35:03;;;;;;;46.80;25.65;;;1.00;99.90;;;;;;6092404;23;20444;-86
2022/03/13 06:37:52;;;;;;;49.33;27.30;;;1.20;99.90;;;;;;6091325;23;20022;-82
2022/03/13 06:40:39;;;;;;;52.47;26.02;;;1.40;99.90;;;;;;6089006;23;20053;-83
2022/03/13 06:43:26;;;;;;;45.35;25.25;;;1.70;99.90;;;;;;6088589;23;20027;-84
2022/03/13 06:46:16;;;;;;;43.15;24.45;;;2.00;99.90;;;;;;6173885;23;20329;-84
2022/03/13 06:49:06;;;;;;;48.33;25.10;;;2.60;99.90;;;;;;6089063;23;20142;-84
2022/03/13 06:51:58;;;;;;;41.38;23.63;;;3.10;99.90;;;;;;6089701;23;20040;-83
2022/03/13 06:54:57;;;;;;;39.95;23.65;;;3.60;99.90;;;;;;6088706;23;20049;-84
2022/03/13 06:57:49;;;;;;;42.30;24.20;;;4.10;99.90;;;;;;6091945;23;20394;-90
2022/03/13 07:00:50;;;;;;;41.25;22.98;;;4.60;99.90;;;;;;6176151;23;20390;-88
2022/03/13 07:03:56;;;;;;;38.80;23.20;;;4.80;99.90;;;;;;6094135;23;20030;-90
2022/03/13 07:06:56;;;;;;;35.90;22.08;;;5.00;99.80;;;;;;6177886;23;20030;-90
2022/03/13 07:09:57;;;;;;;37.78;23.13;;;5.10;98.80;;;;;;6172122;23;20034;-88
2022/03/13 07:12:50;;;;;;;39.10;22.92;;;5.20;98.00;;;;;;6095651;23;20030;-89
2022/03/13 07:15:57;;;;;;;;;;;;;;;;;;;;;
2022/03/13 07:19:09;;;;;;;37.80;22.58;;;5.50;96.00;;;;;;6100337;22;20023;-86
2022/03/13 07:22:16;;;;;;;40.80;24.05;;;5.80;95.30;;;;;;6181646;23;20085;-91
2022/03/13 07:25:30;;;;;;;36.15;23.70;;;6.00;93.70;;;;;;6180973;23;20110;-90
2022/03/13 07:28:22;;;;;;;34.83;22.38;;;6.20;94.10;;;;;;6178703;23;20108;-89
2022/03/13 07:31:29;;;;;;;39.05;23.25;;;6.40;93.10;;;;;;6175261;23;20162;-90
2022/03/13 07:34:21;;;;;;;35.20;21.77;;;6.60;91.80;;;;;;6093588;23;20030;-85
2022/03/13 07:37:37;;;;;;;36.15;22.58;;;6.70;91.80;;;;;;6123972;23;20051;-90
2022/03/13 07:40:43;;;;;;;;;;;;;;;;;;;;;
2022/03/13 07:44:06;;;;;;;38.05;22.80;;;7.20;87.20;;;;;;6123788;23;20022;-89
2022/03/13 07:47:33;;;;;;;;;;;;;;;;;;;;;
2022/03/13 07:50:29;;;;;;;39.58;23.65;;;7.90;82.40;;;;;;6124025;23;20383;-88
2022/03/13 07:53:18;;;;;;;38.65;23.63;;;8.50;79.20;;;;;;6123990;23;20041;-87
2022/03/13 07:56:26;;;;;;;38.85;24.10;;;8.70;75.40;;;;;;6122651;23;20026;-88
2022/03/13 07:59:13;;;;;;;35.60;21.90;;;8.70;74.30;;;;;;6104474;23;20404;-86
2022/03/13 08:02:01;;;;;;;36.67;20.65;;;8.90;74.20;;;;;;6105407;23;20077;-88
2022/03/13 08:18:14;;;;;;;;;;;;;;;;;;;;;
2022/03/13 08:21:30;;;;;;;34.10;20.95;;;10.80;64.20;;;;;;6069356;23;20067;-90
2022/03/13 08:24:20;;;;;;;34.97;21.90;;;10.90;63.80;;;;;;6050307;23;20050;-88
2022/03/13 08:27:08;;;;;;;31.50;20.90;;;11.50;62.40;;;;;;6067935;23;20035;-87
2022/03/13 08:29:57;;;;;;;34.75;21.88;;;12.00;58.70;;;;;;6067696;23;20041;-90
2022/03/13 08:32:54;;;;;;;33.78;21.27;;;12.10;58.60;;;;;;6049049;23;20054;-91
2022/03/13 08:35:44;;;;;;;32.10;20.80;;;12.60;56.60;;;;;;6068234;23;20376;-87
2022/03/13 08:38:31;;;;;;;33.13;21.63;;;13.80;53.00;;;;;;6068152;23;20086;-91
2022/03/13 08:41:21;;;;;;;35.65;21.58;;;14.40;50.90;;;;;;6080617;23;20037;-91
2022/03/13 08:44:09;;;;;;;30.85;21.10;;;14.70;50.40;;;;;;6126801;23;20551;-89
2022/03/13 08:46:59;;;;;;;30.40;20.52;;;14.50;49.50;;;;;;6126346;23;20037;-89
2022/03/13 08:49:46;;;;;;;28.02;18.83;;;14.60;49.60;;;;;;6129079;23;20034;-89
2022/03/13 08:52:35;;;;;;;29.73;20.70;;;15.30;47.30;;;;;;6112628;23;20034;-88
2022/03/13 08:55:22;;;;;;;29.08;20.40;;;15.20;47.70;;;;;;6131231;23;20362;-90
2022/03/13 08:58:12;;;;;;;26.88;19.60;;;15.60;47.10;;;;;;6109413;23;20057;-90
2022/03/13 09:01:02;;;;;;;;;;;15.50;46.50;;;;;;6128579;23;20032;-90
2022/03/13 09:03:52;;;;;;;29.20;19.52;;;15.70;46.80;;;;;;6128965;23;20305;-90
2022/03/13 09:06:46;;;;;;;29.20;20.08;;;15.90;45.40;;;;;;6125073;23;20026;-91
2022/03/13 09:09:34;;;;;;;27.08;18.95;;;16.50;43.90;;;;;;6108376;23;20045;-91
2022/03/13 09:12:26;;;;;;;27.60;18.70;;;16.80;43.30;;;;;;6124282;23;20184;-88
2022/03/13 09:15:13;;;;;;;25.10;19.10;;;17.10;42.20;;;;;;6126741;23;20021;-89
2022/03/13 09:18:02;;;;;;;25.80;19.25;;;17.30;42.20;;;;;;6124761;23;20030;-90
2022/03/13 09:20:49;;;;;;;27.20;17.85;;;17.70;40.30;;;;;;6125580;23;20061;-90
2022/03/13 09:23:39;;;;;;;25.25;18.85;;;17.60;40.50;;;;;;6125116;23;20221;-90
2022/03/13 09:26:26;;;;;;;25.75;17.83;;;18.20;39.10;;;;;;6123761;23;20030;-84
2022/03/13 09:29:16;;;;;;;24.73;18.08;;;18.60;38.20;;;;;;6102242;23;20053;-86
2022/03/13 09:32:04;;;;;;;27.13;17.95;;;18.90;37.00;;;;;;6122406;23;20086;-86
2022/03/13 09:34:55;;;;;;;23.60;17.83;;;19.40;38.10;;;;;;6123000;23;20053;-85
2022/03/13 09:37:45;;;;;;;22.92;17.70;;;19.70;36.40;;;;;;6121947;23;20018;-86
2022/03/13 09:40:35;;;;;;;22.70;17.23;;;20.20;37.20;;;;;;6103898;23;20025;-85
2022/03/13 09:43:23;;;;;;;24.65;17.92;;;20.40;35.70;;;;;;6121687;23;20026;-86
2022/03/13 09:46:16;;;;;;;22.53;17.17;;;20.90;34.90;;;;;;6122670;23;20057;-86
2022/03/13 09:49:03;;;;;;;23.80;17.55;;;21.50;32.90;;;;;;6121096;23;20137;-85
2022/03/13 09:51:54;;;;;;;22.23;17.15;;;21.80;32.00;;;;;;6102505;23;20026;-84
2022/03/13 09:54:41;;;;;;;24.10;17.25;;;21.70;32.10;;;;;;6131300;23;20033;-86
2022/03/13 09:57:33;;;;;;;24.27;18.52;;;21.90;33.50;;;;;;6117685;23;20033;-86
2022/03/13 10:00:21;;;;;;;23.17;17.73;;;21.10;33.50;;;;;;6136881;23;20026;-86
2022/03/13 10:03:11;;;;;;;23.92;17.38;;;21.70;33.50;;;;;;6146333;23;20211;-85
2022/03/13 10:06:03;;;;;;;23.05;18.23;;;22.40;33.80;;;;;;6127994;23;20037;-84
2022/03/13 10:08:50;;;;;;;24.75;17.63;;;23.60;30.80;;;;;;6148178;23;20024;-85
2022/03/13 10:11:42;;;;;;;29.17;18.17;;;23.60;29.80;;;;;;6123010;23;20124;-86
2022/03/13 10:14:29;;;;;;;27.20;18.33;;;23.80;28.60;;;;;;6147327;23;20053;-84
2022/03/13 10:17:28;;;;;;;23.25;18.05;;;23.40;30.10;;;;;;6132926;23;20084;-86
2022/03/13 10:20:27;;;;;;;24.80;18.52;;;23.50;29.50;;;;;;6193907;23;20026;-86
2022/03/13 10:23:19;;;;;;;24.40;18.65;;;24.40;28.70;;;;;;6190063;23;20121;-86
2022/03/13 10:26:07;;;;;;;;;;;24.40;29.70;;;;;;6104310;23;20088;-85
2022/03/13 10:28:55;;;;;;;25.05;19.63;;;24.30;29.70;;;;;;6104277;23;19969;-86
2022/03/13 10:31:57;;;;;;;27.92;21.17;;;24.20;29.60;;;;;;6094775;23;20026;-85
2022/03/13 10:34:54;;;;;;;29.58;21.85;;;24.00;28.30;;;;;;6190802;23;20030;-84
2022/03/13 10:37:44;;;;;;;28.77;21.48;;;24.20;28.60;;;;;;6110112;23;20125;-86
2022/03/13 10:40:33;;;;;;;27.60;20.90;;;23.50;29.00;;;;;;6176158;23;20023;-86
2022/03/13 10:43:22;;;;;;;26.10;19.40;;;23.30;30.20;;;;;;6093542;23;20101;-86
2022/03/13 10:46:10;;;;;;;30.77;21.73;;;22.80;31.50;;;;;;6093874;23;20037;-85
2022/03/13 10:48:59;;;;;;;30.33;21.10;;;22.60;31.60;;;;;;6179609;23;20417;-85
2022/03/13 10:51:48;;;;;;;29.75;21.05;;;22.00;31.80;;;;;;6094638;23;20037;-85
2022/03/13 10:54:39;;;;;;;35.13;21.67;;;22.20;32.10;;;;;;6092607;23;20027;-84
2022/03/13 11:28:07;;;;;;;26.80;18.83;;;27.80;31.00;;;;;;5974484;23;20008;-83
2022/03/13 11:30:58;;;;;;;24.33;19.20;;;29.10;27.20;;;;;;5974727;24;20032;-84
2022/03/13 11:33:46;;;;;;;22.65;18.05;;;29.30;25.60;;;;;;5997991;23;20063;-83
2022/03/13 11:36:36;;;;;;;26.48;18.67;;;29.80;26.50;;;;;;6035169;23;20027;-84
2022/03/13 11:39:31;;;;;;;23.23;18.65;;;30.70;24.50;;;;;;6033405;23;20035;-83
2022/03/13 11:42:23;;;;;;;23.67;19.27;;;31.20;22.80;;;;;;6038332;23;20054;-85
2022/03/13 11:45:30;;;;;;;;;;;31.60;22.60;;;;;;6034841;23;20061;-84
2022/03/13 11:48:20;;;;;;;23.15;18.88;;;32.10;22.90;;;;;;6033696;23;19918;-85
2022/03/13 11:51:26;;;;;;;26.15;18.83;;;32.80;22.00;;;;;;6033991;23;20724;-84
2022/03/13 11:54:32;;;;;;;22.30;19.02;;;33.10;21.30;;;;;;6013090;23;20300;-84
2022/03/13 11:57:22;;;;;;;27.58;18.83;;;33.30;20.50;;;;;;6009442;23;20042;-82
2022/03/13 12:00:14;;;;;;;24.45;18.13;;;33.20;20.20;;;;;;6027446;23;20035;-83
2022/03/13 12:03:12;;;;;;;23.00;17.10;;;33.50;20.60;;;;;;6028540;23;20023;-82
2022/03/13 12:06:00;;;;;;;23.95;18.00;;;33.90;19.90;;;;;;6035357;23;20027;-84
2022/03/13 12:09:11;;;;;;;21.88;18.45;;;34.20;19.30;;;;;;6034084;23;20101;-83
2022/03/13 12:12:04;;;;;;;21.10;17.75;;;34.40;19.20;;;;;;6015528;23;20035;-84
2022/03/13 12:15:05;;;;;;;22.05;18.67;;;34.80;19.80;;;;;;6034988;23;20335;-84
2022/03/13 12:17:53;;;;;;;21.60;17.70;;;35.40;18.30;;;;;;6038931;23;20027;-84
2022/03/13 12:20:43;;;;;;;21.27;18.40;;;35.50;17.90;;;;;;6036916;23;20031;-85
2022/03/13 12:23:33;;;;;;;22.23;18.65;;;35.60;17.50;;;;;;6031907;23;20038;-83
2022/03/13 12:26:27;;;;;;;20.65;17.98;;;35.50;17.60;;;;;;6033474;23;20149;-84
2022/03/13 12:29:20;;;;;;;21.67;18.33;;;35.50;18.20;;;;;;6033909;23;20326;-84
2022/03/13 12:32:11;;;;;;;21.23;18.92;;;35.50;17.80;;;;;;6031389;23;20054;-86
2022/03/13 12:35:00;;;;;;;19.17;16.95;;;35.20;16.90;;;;;;6033964;23;20154;-85
2022/03/13 12:38:02;;;;;;;22.42;17.70;;;35.10;17.80;;;;;;6035160;23;20308;-84
2022/03/13 12:40:53;;;;;;;19.48;17.38;;;35.10;17.50;;;;;;6033549;23;20060;-83
2022/03/13 12:44:04;;;;;;;21.48;18.42;;;35.20;17.80;;;;;;6031665;23;20075;-83
2022/03/13 12:46:56;;;;;;;25.03;20.37;;;34.10;18.30;;;;;;6034644;23;20027;-85
2022/03/13 12:49:44;;;;;;;26.08;19.35;;;32.00;19.30;;;;;;6011523;23;20035;-85
2022/03/13 12:52:32;;;;;;;27.95;21.17;;;30.80;20.00;;;;;;6037683;23;20134;-87
2022/03/13 12:55:20;;;;;;;28.17;20.00;;;29.10;21.30;;;;;;6030953;23;20042;-89
2022/03/13 12:58:13;;;;;;;28.83;21.40;;;28.00;20.90;;;;;;6032964;23;20035;-88
2022/03/13 13:01:00;;;;;;;32.30;21.52;;;27.30;22.00;;;;;;6029522;23;20511;-84
2022/03/13 13:03:52;;;;;;;30.45;22.23;;;26.90;22.20;;;;;;6028387;23;20485;-85
2022/03/13 13:06:41;;;;;;;32.42;21.83;;;25.60;22.90;;;;;;6037447;23;20083;-85
2022/03/13 13:09:32;;;;;;;29.85;21.90;;;25.20;24.00;;;;;;6035813;23;20091;-86
2022/03/13 13:12:29;;;;;;;30.42;19.92;;;25.80;23.30;;;;;;6041645;23;20110;-88
2022/03/13 13:15:20;;;;;;;29.13;20.83;;;25.60;23.40;;;;;;6043273;23;20129;-90
2022/03/13 13:18:08;;;;;;;28.42;21.40;;;25.20;22.80;;;;;;6038554;23;20310;-87
2022/03/13 13:21:08;;;;;;;27.92;19.88;;;25.30;23.10;;;;;;6035853;23;20041;-85
2022/03/13 13:24:27;;;;;;;34.38;23.45;;;25.00;23.40;;;;;;6018361;23;20098;-89
2022/03/13 13:27:29;;;;;;;30.70;22.02;;;25.00;23.60;;;;;;6035807;23;20043;-88
2022/03/13 13:30:37;;;;;;;31.20;21.08;;;25.00;23.60;;;;;;6035327;23;20118;-89
2022/03/13 13:33:33;;;;;;;33.15;21.65;;;25.30;23.70;;;;;;6036321;23;20156;-89
2022/03/13 13:36:20;;;;;;;27.55;18.80;;;25.00;23.30;;;;;;6017055;23;20031;-85
2022/03/13 13:39:08;;;;;;;26.70;17.88;;;24.70;23.20;;;;;;6039506;23;20024;-90
2022/03/13 13:41:56;;;;;;;27.13;19.15;;;24.80;23.50;;;;;;6033317;23;20043;-84
2022/03/13 13:44:44;;;;;;;30.08;20.23;;;24.70;23.40;;;;;;6032625;23;20438;-83
2022/03/13 13:47:34;;;;;;;26.77;19.88;;;24.80;23.50;;;;;;6031198;23;20035;-84
2022/03/13 13:50:24;;;;;;;30.60;19.80;;;24.70;23.20;;;;;;6037289;23;20076;-83
2022/03/13 13:53:12;;;;;;;30.35;20.30;;;24.20;23.70;;;;;;6033323;23;20423;-83
2022/03/13 13:56:13;;;;;;;29.17;21.33;;;23.60;24.80;;;;;;6030889;23;20042;-84
2022/03/13 13:59:32;;;;;;;29.20;20.00;;;23.50;24.90;;;;;;6033558;23;20036;-85
2022/03/13 14:02:25;;;;;;;31.75;20.73;;;23.80;24.30;;;;;;6012918;23;20027;-85
2022/03/13 14:05:12;;;;;;;28.17;19.70;;;23.40;25.20;;;;;;6034080;23;20371;-84
2022/03/13 14:08:00;;;;;;;29.50;20.88;;;23.70;25.10;;;;;;6033529;23;20035;-85
2022/03/13 14:10:50;;;;;;;28.38;19.13;;;23.80;25.30;;;;;;6035715;23;20035;-86
2022/03/13 14:13:42;;;;;;;28.15;19.58;;;24.40;24.90;;;;;;6032130;23;20072;-86
2022/03/13 14:16:31;;;;;;;29.65;19.40;;;24.60;24.60;;;;;;6010996;23;20033;-84
2022/03/13 14:19:40;;;;;;;30.05;21.05;;;24.20;24.90;;;;;;6032092;23;20031;-86
2022/03/13 14:22:33;;;;;;;30.30;20.98;;;24.20;24.90;;;;;;6033919;23;20643;-87
2022/03/13 14:25:21;;;;;;;28.15;19.73;;;23.90;25.10;;;;;;6038779;23;20378;-84
2022/03/13 14:28:15;;;;;;;30.52;20.17;;;24.10;25.00;;;;;;6033746;23;20235;-87
2022/03/13 14:31:03;;;;;;;32.78;21.77;;;23.80;24.80;;;;;;6034709;23;20027;-86
2022/03/13 14:33:57;;;;;;;28.42;20.17;;;23.70;25.00;;;;;;6038850;23;20427;-85
2022/03/13 14:36:51;;;;;;;27.52;19.58;;;23.60;25.60;;;;;;6012029;23;20134;-85
2022/03/13 14:39:42;;;;;;;31.38;21.25;;;23.20;25.80;;;;;;6032560;23;20477;-85
2022/03/13 14:42:34;;;;;;;34.28;20.92;;;22.70;26.50;;;;;;6034319;23;20056;-86
2022/03/13 14:45:31;;;;;;;29.17;20.15;;;22.90;26.50;;;;;;6014424;23;20107;-85
2022/03/13 14:48:24;;;;;;;33.53;20.90;;;23.20;26.00;;;;;;6121063;23;20086;-85
2022/03/13 14:51:12;;;;;;;27.45;19.67;;;22.70;26.00;;;;;;6122348;23;20026;-85
2022/03/13 14:54:02;;;;;;;28.42;20.20;;;22.00;26.80;;;;;;6124229;23;20034;-86
2022/03/13 14:56:52;;;;;;;;;;;21.90;27.30;;;;;;6126037;23;20030;-84
2022/03/13 14:59:52;;;;;;;30.73;19.30;;;22.00;26.80;;;;;;6121207;23;19931;-81
2022/03/13 15:02:40;;;;;;;29.20;19.17;;;22.00;27.10;;;;;;6121414;23;20104;-80
2022/03/13 15:05:27;;;;;;;29.05;19.77;;;21.90;27.00;;;;;;6121136;23;20026;-80
2022/03/13 15:08:17;;;;;;;32.08;19.83;;;22.20;27.30;;;;;;6121420;23;20036;-80
2022/03/13 15:11:05;;;;;;;29.98;20.17;;;22.00;26.70;;;;;;6122466;23;20026;-80
2022/03/13 15:13:52;;;;;;;30.52;20.00;;;21.60;27.30;;;;;;6122146;23;20105;-81
2022/03/13 15:16:40;;;;;;;30.58;20.00;;;21.00;28.20;;;;;;6123195;23;20113;-82
2022/03/13 15:19:38;;;;;;;27.88;19.20;;;20.70;28.40;;;;;;6121548;23;20037;-82
2022/03/13 15:22:50;;;;;;;27.15;18.77;;;20.40;28.80;;;;;;6121528;23;20030;-83
2022/03/13 15:25:38;;;;;;;28.90;18.45;;;20.10;29.50;;;;;;6074411;23;20054;-84
2022/03/13 15:28:27;;;;;;;30.00;17.27;;;19.90;29.20;;;;;;6032510;23;20031;-85